createdAt,value
2017-05-22T00:00:08.652Z,926.93
2017-05-22T00:00:28.602Z,926.91
2017-05-22T00:00:48.577Z,926.9
2017-05-22T00:01:08.582Z,926.91
2017-05-22T00:01:28.024Z,926.93
2017-05-22T00:01:48.056Z,926.92
2017-05-22T00:02:08.052Z,926.95
2017-05-22T00:02:28.022Z,926.93
2017-05-22T00:02:47.987Z,926.93
2017-05-22T00:03:07.399Z,926.93
2017-05-22T00:03:27.391Z,926.92
2017-05-22T00:03:46.826Z,926.89
2017-05-22T00:04:06.825Z,926.9
2017-05-22T00:04:25.675Z,926.89
2017-05-22T00:04:45.116Z,926.9
2017-05-22T00:05:04.504Z,926.87
2017-05-22T00:05:23.950Z,926.86
2017-05-22T00:05:43.944Z,926.9
2017-05-22T00:06:02.801Z,926.88
2017-05-22T00:06:22.727Z,926.89
2017-05-22T00:06:42.127Z,926.86
2017-05-22T00:07:00.959Z,926.86
2017-05-22T00:07:20.378Z,926.86
2017-05-22T00:07:40.397Z,926.85
2017-05-22T00:08:00.386Z,926.85
2017-05-22T00:08:19.791Z,926.86
2017-05-22T00:08:39.818Z,926.82
2017-05-22T00:08:59.777Z,926.83
2017-05-22T00:09:19.750Z,926.85
2017-05-22T00:09:39.737Z,926.81
2017-05-22T00:09:59.708Z,926.78
2017-05-22T00:10:18.575Z,926.8
2017-05-22T00:10:38.555Z,926.77
2017-05-22T00:10:58.572Z,926.78
2017-05-22T00:11:18.544Z,926.83
2017-05-22T00:11:38.540Z,926.79
2017-05-22T00:11:58.519Z,926.81
2017-05-22T00:12:18.489Z,926.85
2017-05-22T00:12:38.472Z,926.82
2017-05-22T00:12:58.458Z,926.83
2017-05-22T00:13:18.452Z,926.8
2017-05-22T00:13:38.422Z,926.77
2017-05-22T00:13:57.821Z,926.78
2017-05-22T00:14:17.784Z,926.81
2017-05-22T00:14:37.760Z,926.82
2017-05-22T00:14:57.725Z,926.81
2017-05-22T00:15:17.716Z,926.78
2017-05-22T00:15:37.646Z,926.78
2017-05-22T00:15:57.621Z,926.79
2017-05-22T00:16:17.622Z,926.77
2017-05-22T00:16:37.621Z,926.79
2017-05-22T00:16:57.019Z,926.79
2017-05-22T00:17:16.986Z,926.76
2017-05-22T00:17:36.956Z,926.75
2017-05-22T00:17:56.389Z,926.76
2017-05-22T00:18:16.318Z,926.78
2017-05-22T00:18:36.286Z,926.72
2017-05-22T00:18:56.277Z,926.74
2017-05-22T00:19:16.252Z,926.71
2017-05-22T00:19:36.244Z,926.72
2017-05-22T00:19:55.658Z,926.66
2017-05-22T00:20:15.044Z,926.7
2017-05-22T00:20:34.482Z,926.64
2017-05-22T00:20:54.458Z,926.65
2017-05-22T00:21:14.441Z,926.6
2017-05-22T00:21:34.438Z,926.62
2017-05-22T00:21:54.420Z,926.61
2017-05-22T00:22:14.403Z,926.61
2017-05-22T00:22:33.849Z,926.6
2017-05-22T00:22:53.835Z,926.61
2017-05-22T00:23:13.811Z,926.59
2017-05-22T00:23:33.216Z,926.6
2017-05-22T00:23:52.629Z,926.6
2017-05-22T00:24:31.797Z,926.59
2017-05-22T00:24:51.769Z,926.54
2017-05-22T00:25:11.759Z,926.56
2017-05-22T00:25:31.639Z,926.54
2017-05-22T00:25:51.614Z,926.54
2017-05-22T00:26:11.589Z,926.48
2017-05-22T00:26:31.618Z,926.5
2017-05-22T00:26:51.599Z,926.5
2017-05-22T00:27:11.551Z,926.49
2017-05-22T00:27:31.538Z,926.5
2017-05-22T00:27:51.516Z,926.48
2017-05-22T00:28:11.521Z,926.48
2017-05-22T00:28:31.549Z,926.48
2017-05-22T00:28:50.960Z,926.46
2017-05-22T00:29:10.949Z,926.51
2017-05-22T00:29:30.942Z,926.47
2017-05-22T00:29:50.928Z,926.46
2017-05-22T00:30:10.918Z,926.47
2017-05-22T00:30:30.350Z,926.48
2017-05-22T00:30:49.219Z,926.5
2017-05-22T00:31:09.272Z,926.5
2017-05-22T00:31:29.291Z,926.52
2017-05-22T00:31:49.277Z,926.5
2017-05-22T00:32:09.284Z,926.52
2017-05-22T00:32:29.233Z,926.54
2017-05-22T00:32:49.228Z,926.51
2017-05-22T00:33:09.212Z,926.55
2017-05-22T00:33:29.203Z,926.53
2017-05-22T00:33:48.599Z,926.57
2017-05-22T00:34:08.588Z,926.57
2017-05-22T00:34:28.582Z,926.58
2017-05-22T00:34:48.630Z,926.56
2017-05-22T00:35:08.778Z,926.62
2017-05-22T00:35:28.768Z,926.58
2017-05-22T00:35:47.639Z,926.61
2017-05-22T00:36:07.691Z,926.61
2017-05-22T00:36:53.177Z,926.59
2017-05-22T00:37:13.195Z,926.62
2017-05-22T00:37:32.624Z,926.64
2017-05-22T00:37:52.584Z,926.65
2017-05-22T00:38:12.561Z,926.69
2017-05-22T00:38:32.553Z,926.68
2017-05-22T00:38:52.524Z,926.64
2017-05-22T00:39:11.980Z,926.68
2017-05-22T00:39:31.404Z,926.73
2017-05-22T00:39:51.394Z,926.7
2017-05-22T00:40:11.385Z,926.77
2017-05-22T00:40:30.827Z,926.78
2017-05-22T00:40:50.796Z,926.78
2017-05-22T00:41:10.805Z,926.82
2017-05-22T00:41:30.247Z,926.81
2017-05-22T00:41:50.237Z,926.81
2017-05-22T00:42:09.658Z,926.84
2017-05-22T00:42:29.632Z,926.84
2017-05-22T00:42:49.088Z,926.9
2017-05-22T00:43:09.079Z,926.92
2017-05-22T00:43:29.041Z,926.96
2017-05-22T00:43:48.480Z,926.96
2017-05-22T00:44:08.502Z,926.99
2017-05-22T00:44:28.475Z,926.99
2017-05-22T00:44:48.462Z,927.01
2017-05-22T00:45:07.872Z,927
2017-05-22T00:45:27.253Z,927.05
2017-05-22T00:45:47.227Z,927.02
2017-05-22T00:46:07.224Z,927.03
2017-05-22T00:46:26.628Z,927.06
2017-05-22T00:46:46.580Z,927.09
2017-05-22T00:47:06.533Z,927.09
2017-05-22T00:47:26.544Z,927.15
2017-05-22T00:47:46.531Z,927.17
2017-05-22T00:48:06.535Z,927.14
2017-05-22T00:48:26.521Z,927.16
2017-05-22T00:48:46.505Z,927.15
2017-05-22T00:49:05.914Z,927.14
2017-05-22T00:49:25.875Z,927.14
2017-05-22T00:49:45.849Z,927.11
2017-05-22T00:50:04.693Z,927.09
2017-05-22T00:50:24.854Z,927.14
2017-05-22T00:50:44.857Z,927.14
2017-05-22T00:51:04.277Z,927.13
2017-05-22T00:51:24.283Z,927.1
2017-05-22T00:51:44.277Z,927.13
2017-05-22T00:52:04.275Z,927.14
2017-05-22T00:52:23.687Z,927.19
2017-05-22T00:52:43.667Z,927.17
2017-05-22T00:53:03.098Z,927.16
2017-05-22T00:53:23.086Z,927.15
2017-05-22T00:53:43.049Z,927.16
2017-05-22T00:54:02.991Z,927.14
2017-05-22T00:54:22.997Z,927.17
2017-05-22T00:54:42.428Z,927.11
2017-05-22T00:55:01.436Z,927.15
2017-05-22T00:55:21.402Z,927.15
2017-05-22T00:55:41.362Z,927.12
2017-05-22T00:56:01.349Z,927.13
2017-05-22T00:56:21.305Z,927.14
2017-05-22T00:56:41.266Z,927.13
2017-05-22T00:57:01.230Z,927.14
2017-05-22T00:57:21.187Z,927.16
2017-05-22T00:57:40.568Z,927.15
2017-05-22T00:58:00.036Z,927.15
2017-05-22T00:58:20.012Z,927.17
2017-05-22T00:58:39.432Z,927.19
2017-05-22T00:58:59.406Z,927.22
2017-05-22T00:59:19.366Z,927.2
2017-05-22T00:59:39.362Z,927.2
2017-05-22T00:59:59.365Z,927.2
2017-05-22T01:00:19.346Z,927.21
2017-05-22T01:00:39.320Z,927.17
2017-05-22T01:00:59.285Z,927.18
2017-05-22T01:01:19.258Z,927.18
2017-05-22T01:01:38.688Z,927.13
2017-05-22T01:01:58.635Z,927.16
2017-05-22T01:02:18.606Z,927.11
2017-05-22T01:02:38.557Z,927.03
2017-05-22T01:02:58.539Z,927.07
2017-05-22T01:03:17.943Z,927.09
2017-05-22T01:03:38.016Z,927.06
2017-05-22T01:03:57.992Z,927.05
2017-05-22T01:04:16.842Z,927.02
2017-05-22T01:04:35.722Z,927.05
2017-05-22T01:04:55.708Z,927.05
2017-05-22T01:05:15.137Z,927.01
2017-05-22T01:05:34.549Z,926.99
2017-05-22T01:05:54.543Z,926.99
2017-05-22T01:06:14.515Z,927.01
2017-05-22T01:06:33.921Z,926.99
2017-05-22T01:06:53.881Z,926.97
2017-05-22T01:07:12.809Z,926.97
2017-05-22T01:07:32.217Z,926.96
2017-05-22T01:07:52.202Z,926.96
2017-05-22T01:08:12.157Z,926.94
2017-05-22T01:08:31.577Z,926.95
2017-05-22T01:08:51.544Z,926.94
2017-05-22T01:09:11.496Z,927.01
2017-05-22T01:09:30.919Z,927
2017-05-22T01:09:50.885Z,927
2017-05-22T01:10:10.856Z,927
2017-05-22T01:10:30.840Z,927.04
2017-05-22T01:10:50.836Z,927.04
2017-05-22T01:11:10.834Z,927.08
2017-05-22T01:11:30.849Z,927.12
2017-05-22T01:11:50.859Z,927.14
2017-05-22T01:12:10.832Z,927.17
2017-05-22T01:12:30.818Z,927.17
2017-05-22T01:12:50.802Z,927.2
2017-05-22T01:13:10.802Z,927.17
2017-05-22T01:13:30.766Z,927.18
2017-05-22T01:13:50.760Z,927.2
2017-05-22T01:14:10.729Z,927.22
2017-05-22T01:14:30.660Z,927.25
2017-05-22T01:14:50.067Z,927.22
2017-05-22T01:15:10.009Z,927.25
2017-05-22T01:15:29.085Z,927.24
2017-05-22T01:15:49.092Z,927.22
2017-05-22T01:16:08.485Z,927.2
2017-05-22T01:16:28.494Z,927.21
2017-05-22T01:16:48.482Z,927.22
2017-05-22T01:17:08.505Z,927.19
2017-05-22T01:17:28.497Z,927.19
2017-05-22T01:17:48.514Z,927.2
2017-05-22T01:18:08.509Z,927.2
2017-05-22T01:18:27.911Z,927.2
2017-05-22T01:18:47.897Z,927.22
2017-05-22T01:19:07.881Z,927.18
2017-05-22T01:19:27.866Z,927.17
2017-05-22T01:19:47.841Z,927.11
2017-05-22T01:20:07.778Z,927.11
2017-05-22T01:20:27.037Z,927.08
2017-05-22T01:20:47.031Z,927.05
2017-05-22T01:21:07.085Z,927.03
2017-05-22T01:21:26.525Z,926.99
2017-05-22T01:21:45.958Z,927
2017-05-22T01:22:05.923Z,926.99
2017-05-22T01:22:24.759Z,926.97
2017-05-22T01:22:44.757Z,926.97
2017-05-22T01:23:04.729Z,927.02
2017-05-22T01:23:24.726Z,926.99
2017-05-22T01:23:43.572Z,926.99
2017-05-22T01:24:03.527Z,926.97
2017-05-22T01:24:22.964Z,926.99
2017-05-22T01:24:41.823Z,927
2017-05-22T01:25:01.836Z,927.01
2017-05-22T01:25:21.876Z,927.04
2017-05-22T01:25:41.380Z,927.04
2017-05-22T01:26:01.370Z,927.02
2017-05-22T01:26:21.371Z,927.05
2017-05-22T01:26:41.309Z,927.05
2017-05-22T01:27:01.297Z,927.02
2017-05-22T01:27:21.257Z,927.08
2017-05-22T01:27:41.255Z,927.09
2017-05-22T01:28:01.219Z,927.09
2017-05-22T01:28:21.224Z,927.11
2017-05-22T01:28:41.214Z,927.14
2017-05-22T01:29:01.189Z,927.14
2017-05-22T01:29:21.164Z,927.17
2017-05-22T01:29:41.129Z,927.14
2017-05-22T01:30:00.567Z,927.19
2017-05-22T01:30:20.021Z,927.21
2017-05-22T01:30:39.974Z,927.27
2017-05-22T01:30:59.965Z,927.3
2017-05-22T01:31:19.387Z,927.32
2017-05-22T01:31:39.363Z,927.34
2017-05-22T01:31:59.346Z,927.38
2017-05-22T01:32:19.329Z,927.41
2017-05-22T01:32:39.371Z,927.4
2017-05-22T01:32:59.389Z,927.42
2017-05-22T01:33:19.388Z,927.47
2017-05-22T01:33:39.359Z,927.45
2017-05-22T01:33:59.366Z,927.52
2017-05-22T01:34:18.791Z,927.54
2017-05-22T01:34:38.797Z,927.5
2017-05-22T01:34:58.222Z,927.49
2017-05-22T01:35:18.217Z,927.51
2017-05-22T01:35:38.192Z,927.53
2017-05-22T01:35:58.119Z,927.55
2017-05-22T01:36:18.083Z,927.52
2017-05-22T01:36:38.063Z,927.51
2017-05-22T01:36:58.042Z,927.49
2017-05-22T01:37:18.025Z,927.48
2017-05-22T01:37:38.011Z,927.49
2017-05-22T01:37:58.039Z,927.47
2017-05-22T01:38:17.467Z,927.51
2017-05-22T01:38:36.840Z,927.51
2017-05-22T01:38:56.846Z,927.45
2017-05-22T01:39:16.840Z,927.43
2017-05-22T01:39:36.834Z,927.46
2017-05-22T01:39:56.848Z,927.47
2017-05-22T01:40:16.281Z,927.44
2017-05-22T01:40:35.683Z,927.45
2017-05-22T01:40:55.131Z,927.44
2017-05-22T01:41:15.144Z,927.4
2017-05-22T01:41:35.087Z,927.38
2017-05-22T01:41:55.098Z,927.38
2017-05-22T01:42:15.069Z,927.38
2017-05-22T01:42:34.471Z,927.41
2017-05-22T01:42:54.452Z,927.38
2017-05-22T01:43:14.415Z,927.37
2017-05-22T01:43:34.384Z,927.37
2017-05-22T01:43:54.391Z,927.37
2017-05-22T01:44:14.401Z,927.35
2017-05-22T01:44:33.826Z,927.37
2017-05-22T01:44:53.259Z,927.34
2017-05-22T01:45:12.669Z,927.36
2017-05-22T01:45:32.908Z,927.38
2017-05-22T01:45:52.304Z,927.41
2017-05-22T01:46:12.276Z,927.4
2017-05-22T01:46:31.666Z,927.39
2017-05-22T01:46:51.649Z,927.45
2017-05-22T01:47:11.651Z,927.45
2017-05-22T01:47:31.670Z,927.46
2017-05-22T01:47:51.080Z,927.47
2017-05-22T01:48:11.051Z,927.48
2017-05-22T01:48:31.021Z,927.52
2017-05-22T01:48:50.992Z,927.55
2017-05-22T01:49:10.995Z,927.57
2017-05-22T01:49:30.990Z,927.52
2017-05-22T01:49:50.977Z,927.53
2017-05-22T01:50:10.989Z,927.54
2017-05-22T01:50:30.952Z,927.53
2017-05-22T01:50:50.420Z,927.52
2017-05-22T01:51:10.370Z,927.53
2017-05-22T01:51:30.345Z,927.51
2017-05-22T01:51:50.318Z,927.51
2017-05-22T01:52:10.302Z,927.44
2017-05-22T01:52:29.153Z,927.46
2017-05-22T01:52:49.165Z,927.43
2017-05-22T01:53:08.575Z,927.41
2017-05-22T01:53:28.533Z,927.39
2017-05-22T01:53:48.505Z,927.36
2017-05-22T01:54:08.487Z,927.33
2017-05-22T01:54:28.496Z,927.31
2017-05-22T01:54:47.944Z,927.3
2017-05-22T01:55:07.898Z,927.27
2017-05-22T01:55:27.933Z,927.33
2017-05-22T01:55:47.918Z,927.34
2017-05-22T01:56:07.906Z,927.25
2017-05-22T01:56:27.899Z,927.27
2017-05-22T01:56:47.877Z,927.25
2017-05-22T01:57:07.851Z,927.26
2017-05-22T01:57:27.818Z,927.27
2017-05-22T01:57:47.788Z,927.28
2017-05-22T01:58:07.802Z,927.27
2017-05-22T01:58:27.792Z,927.29
2017-05-22T01:58:47.773Z,927.31
2017-05-22T01:59:07.771Z,927.3
2017-05-22T01:59:27.780Z,927.29
2017-05-22T01:59:47.752Z,927.31
2017-05-22T02:00:07.194Z,927.28
2017-05-22T02:00:26.638Z,927.29
2017-05-22T02:00:46.043Z,927.28
2017-05-22T02:01:06.007Z,927.32
2017-05-22T02:01:25.973Z,927.28
2017-05-22T02:01:45.985Z,927.28
2017-05-22T02:02:05.945Z,927.27
2017-05-22T02:02:24.787Z,927.28
2017-05-22T02:02:44.799Z,927.28
2017-05-22T02:03:04.792Z,927.3
2017-05-22T02:03:24.794Z,927.29
2017-05-22T02:03:44.788Z,927.28
2017-05-22T02:04:04.756Z,927.28
2017-05-22T02:04:24.778Z,927.3
2017-05-22T02:04:44.796Z,927.27
2017-05-22T02:05:04.748Z,927.31
2017-05-22T02:05:24.176Z,927.3
2017-05-22T02:05:43.596Z,927.3
2017-05-22T02:06:03.007Z,927.28
2017-05-22T02:06:22.994Z,927.28
2017-05-22T02:06:43.043Z,927.26
2017-05-22T02:07:03.049Z,927.24
2017-05-22T02:07:22.453Z,927.29
2017-05-22T02:07:41.857Z,927.24
2017-05-22T02:08:01.865Z,927.27
2017-05-22T02:08:20.162Z,927.27
2017-05-22T02:08:40.189Z,927.28
2017-05-22T02:09:00.171Z,927.31
2017-05-22T02:09:20.168Z,927.28
2017-05-22T02:09:40.150Z,927.31
2017-05-22T02:09:59.573Z,927.29
2017-05-22T02:10:19.566Z,927.29
2017-05-22T02:10:38.408Z,927.29
2017-05-22T02:10:58.403Z,927.27
2017-05-22T02:11:18.305Z,927.3
2017-05-22T02:11:38.356Z,927.29
2017-05-22T02:11:58.308Z,927.31
2017-05-22T02:12:18.335Z,927.23
2017-05-22T02:12:38.202Z,927.23
2017-05-22T02:12:57.597Z,927.25
2017-05-22T02:13:17.575Z,927.23
2017-05-22T02:13:37.533Z,927.22
2017-05-22T02:13:57.540Z,927.22
2017-05-22T02:14:17.475Z,927.19
2017-05-22T02:14:36.868Z,927.18
2017-05-22T02:14:56.298Z,927.2
2017-05-22T02:15:16.510Z,927.2
2017-05-22T02:15:36.502Z,927.2
2017-05-22T02:15:56.516Z,927.2
2017-05-22T02:16:15.983Z,927.17
2017-05-22T02:16:35.403Z,927.12
2017-05-22T02:16:55.398Z,927.19
2017-05-22T02:17:14.855Z,927.17
2017-05-22T02:17:34.254Z,927.2
2017-05-22T02:17:54.254Z,927.18
2017-05-22T02:18:13.724Z,927.16
2017-05-22T02:18:33.699Z,927.23
2017-05-22T02:18:53.688Z,927.2
2017-05-22T02:19:13.115Z,927.18
2017-05-22T02:19:33.092Z,927.19
2017-05-22T02:19:51.931Z,927.16
2017-05-22T02:20:12.305Z,927.15
2017-05-22T02:20:31.793Z,927.19
2017-05-22T02:20:51.818Z,927.18
2017-05-22T02:21:11.829Z,927.18
2017-05-22T02:21:31.837Z,927.13
2017-05-22T02:21:51.784Z,927.13
2017-05-22T02:22:11.736Z,927.11
2017-05-22T02:22:31.798Z,927.12
2017-05-22T02:22:51.794Z,927.1
2017-05-22T02:23:11.789Z,927.1
2017-05-22T02:23:30.641Z,927.06
2017-05-22T02:23:50.640Z,927.11
2017-05-22T02:24:10.634Z,927.03
2017-05-22T02:24:30.613Z,927.02
2017-05-22T02:24:50.613Z,927.04
2017-05-22T02:25:10.032Z,927.03
2017-05-22T02:25:29.443Z,927.07
2017-05-22T02:25:49.420Z,927.07
2017-05-22T02:26:09.434Z,927.04
2017-05-22T02:26:29.431Z,927.06
2017-05-22T02:26:49.439Z,927.01
2017-05-22T02:27:09.415Z,927.06
2017-05-22T02:27:29.374Z,927.07
2017-05-22T02:27:49.316Z,927.08
2017-05-22T02:28:09.322Z,927.12
2017-05-22T02:28:29.318Z,927.09
2017-05-22T02:28:49.293Z,927.12
2017-05-22T02:29:09.268Z,927.14
2017-05-22T02:29:29.265Z,927.13
2017-05-22T02:29:48.679Z,927.15
2017-05-22T02:30:08.682Z,927.15
2017-05-22T02:30:28.087Z,927.18
2017-05-22T02:30:48.078Z,927.18
2017-05-22T02:31:08.080Z,927.18
2017-05-22T02:31:28.039Z,927.21
2017-05-22T02:31:48.014Z,927.18
2017-05-22T02:32:08.002Z,927.22
2017-05-22T02:32:26.871Z,927.2
2017-05-22T02:32:46.849Z,927.19
2017-05-22T02:33:06.823Z,927.2
2017-05-22T02:33:25.692Z,927.18
2017-05-22T02:33:45.104Z,927.11
2017-05-22T02:34:05.109Z,927.08
2017-05-22T02:34:25.146Z,927.05
2017-05-22T02:34:45.116Z,926.97
2017-05-22T02:35:05.089Z,926.98
2017-05-22T02:35:25.056Z,926.94
2017-05-22T02:35:45.027Z,926.99
2017-05-22T02:36:04.964Z,926.98
2017-05-22T02:36:24.408Z,926.97
2017-05-22T02:36:44.367Z,927
2017-05-22T02:37:04.369Z,927.03
2017-05-22T02:37:24.366Z,927.04
2017-05-22T02:37:44.374Z,927.05
2017-05-22T02:38:04.347Z,927.02
2017-05-22T02:38:23.802Z,927.05
2017-05-22T02:38:43.204Z,927.05
2017-05-22T02:39:03.188Z,927.04
2017-05-22T02:39:23.183Z,927.08
2017-05-22T02:39:43.189Z,927.07
2017-05-22T02:40:03.174Z,927.06
2017-05-22T02:40:23.215Z,927.07
2017-05-22T02:40:43.391Z,927.04
2017-05-22T02:41:03.662Z,927.05
2017-05-22T02:41:23.065Z,927.1
2017-05-22T02:41:42.470Z,927.08
2017-05-22T02:42:01.909Z,927.1
2017-05-22T02:42:21.900Z,927.06
2017-05-22T02:42:41.898Z,927.07
2017-05-22T02:43:01.855Z,927.08
2017-05-22T02:43:21.848Z,927.11
2017-05-22T02:43:41.257Z,927.07
2017-05-22T02:44:01.224Z,927.04
2017-05-22T02:44:21.218Z,927.02
2017-05-22T02:44:41.200Z,927.02
2017-05-22T02:45:01.190Z,926.99
2017-05-22T02:45:21.419Z,926.94
2017-05-22T02:45:41.390Z,926.95
2017-05-22T02:46:01.356Z,926.92
2017-05-22T02:46:21.330Z,926.97
2017-05-22T02:46:41.289Z,926.96
2017-05-22T02:47:01.315Z,926.96
2017-05-22T02:47:21.263Z,926.97
2017-05-22T02:47:41.241Z,926.93
2017-05-22T02:48:01.235Z,926.93
2017-05-22T02:48:20.132Z,926.97
2017-05-22T02:48:54.488Z,926.99
2017-05-22T02:49:13.969Z,926.99
2017-05-22T02:49:34.060Z,926.99
2017-05-22T02:49:54.067Z,926.98
2017-05-22T02:50:14.031Z,926.97
2017-05-22T02:50:33.466Z,927.02
2017-05-22T02:50:53.446Z,927.01
2017-05-22T02:51:13.420Z,927
2017-05-22T02:51:32.843Z,927.03
2017-05-22T02:51:52.251Z,927.02
2017-05-22T02:52:12.261Z,927.01
2017-05-22T02:52:32.248Z,927.03
2017-05-22T02:52:52.226Z,926.99
2017-05-22T02:53:11.691Z,926.96
2017-05-22T02:53:31.679Z,926.96
2017-05-22T02:53:51.135Z,926.94
2017-05-22T02:54:11.088Z,926.99
2017-05-22T02:54:31.077Z,926.99
2017-05-22T02:54:51.032Z,926.96
2017-05-22T02:55:11.340Z,926.96
2017-05-22T02:55:31.296Z,926.96
2017-05-22T02:55:51.277Z,926.96
2017-05-22T02:56:11.229Z,927.01
2017-05-22T02:56:30.660Z,926.95
2017-05-22T02:56:50.627Z,926.94
2017-05-22T02:57:10.608Z,926.95
2017-05-22T02:57:30.612Z,926.96
2017-05-22T02:57:50.599Z,926.96
2017-05-22T02:58:10.590Z,926.96
2017-05-22T02:58:30.579Z,927.01
2017-05-22T02:58:49.432Z,926.98
2017-05-22T02:59:09.408Z,926.97
2017-05-22T02:59:29.433Z,926.97
2017-05-22T02:59:49.407Z,926.99
2017-05-22T03:00:09.386Z,926.98
2017-05-22T03:00:31.289Z,927.01
2017-05-22T03:00:50.757Z,927.02
2017-05-22T03:01:10.741Z,927
2017-05-22T03:01:30.738Z,927.01
2017-05-22T03:01:50.749Z,927.03
2017-05-22T03:02:10.712Z,927.01
2017-05-22T03:02:30.706Z,927.01
2017-05-22T03:02:50.688Z,926.99
2017-05-22T03:03:10.684Z,926.99
2017-05-22T03:03:30.646Z,926.96
2017-05-22T03:03:49.487Z,926.97
2017-05-22T03:04:09.454Z,926.95
2017-05-22T03:04:29.447Z,926.99
2017-05-22T03:04:48.902Z,926.99
2017-05-22T03:05:08.363Z,926.98
2017-05-22T03:05:28.381Z,926.96
2017-05-22T03:05:48.410Z,926.97
2017-05-22T03:06:08.368Z,926.94
2017-05-22T03:06:28.357Z,926.93
2017-05-22T03:06:47.736Z,926.91
2017-05-22T03:07:07.716Z,926.92
2017-05-22T03:07:27.698Z,926.91
2017-05-22T03:07:47.677Z,926.91
2017-05-22T03:08:07.648Z,926.91
2017-05-22T03:08:27.076Z,926.92
2017-05-22T03:08:46.480Z,926.9
2017-05-22T03:09:06.553Z,926.91
2017-05-22T03:09:26.518Z,926.93
2017-05-22T03:09:46.465Z,926.94
2017-05-22T03:10:06.416Z,926.93
2017-05-22T03:10:25.847Z,926.93
2017-05-22T03:10:45.836Z,926.93
2017-05-22T03:11:05.302Z,926.96
2017-05-22T03:11:24.740Z,926.94
2017-05-22T03:11:44.690Z,926.92
2017-05-22T03:12:04.660Z,926.98
2017-05-22T03:12:24.660Z,926.96
2017-05-22T03:12:44.065Z,926.96
2017-05-22T03:13:03.512Z,926.93
2017-05-22T03:13:23.495Z,926.96
2017-05-22T03:13:43.455Z,926.95
2017-05-22T03:14:02.881Z,926.95
2017-05-22T03:14:22.857Z,926.92
2017-05-22T03:14:42.854Z,926.9
2017-05-22T03:15:02.843Z,926.9
2017-05-22T03:15:23.111Z,926.91
2017-05-22T03:15:43.101Z,926.86
2017-05-22T03:16:03.091Z,926.86
2017-05-22T03:16:23.086Z,926.86
2017-05-22T03:16:41.929Z,926.84
2017-05-22T03:17:01.908Z,926.86
2017-05-22T03:17:21.894Z,926.83
2017-05-22T03:17:41.303Z,926.88
2017-05-22T03:18:00.744Z,926.83
2017-05-22T03:18:20.709Z,926.82
2017-05-22T03:18:40.144Z,926.82
2017-05-22T03:18:59.585Z,926.85
2017-05-22T03:19:19.550Z,926.81
2017-05-22T03:19:38.969Z,926.81
2017-05-22T03:19:58.971Z,926.81
2017-05-22T03:20:18.968Z,926.82
2017-05-22T03:20:38.380Z,926.8
2017-05-22T03:20:57.751Z,926.77
2017-05-22T03:21:17.194Z,926.82
2017-05-22T03:21:37.197Z,926.78
2017-05-22T03:21:57.141Z,926.78
2017-05-22T03:22:17.168Z,926.8
2017-05-22T03:22:37.160Z,926.8
2017-05-22T03:22:57.151Z,926.81
2017-05-22T03:23:17.166Z,926.82
2017-05-22T03:23:36.610Z,926.82
2017-05-22T03:23:56.615Z,926.82
2017-05-22T03:24:16.566Z,926.83
2017-05-22T03:24:35.406Z,926.84
2017-05-22T03:24:54.834Z,926.82
2017-05-22T03:25:13.729Z,926.81
2017-05-22T03:25:33.121Z,926.85
2017-05-22T03:25:52.580Z,926.79
2017-05-22T03:26:12.546Z,926.82
2017-05-22T03:26:32.516Z,926.82
2017-05-22T03:26:52.444Z,926.79
2017-05-22T03:27:11.852Z,926.79
2017-05-22T03:27:31.799Z,926.79
2017-05-22T03:27:51.851Z,926.77
2017-05-22T03:28:11.830Z,926.77
2017-05-22T03:28:31.819Z,926.76
2017-05-22T03:28:51.787Z,926.71
2017-05-22T03:29:11.753Z,926.72
2017-05-22T03:29:31.733Z,926.72
2017-05-22T03:29:51.774Z,926.72
2017-05-22T03:30:10.662Z,926.71
2017-05-22T03:30:30.623Z,926.7
2017-05-22T03:30:50.609Z,926.69
2017-05-22T03:31:09.991Z,926.74
2017-05-22T03:31:29.932Z,926.69
2017-05-22T03:31:49.343Z,926.73
2017-05-22T03:32:09.342Z,926.7
2017-05-22T03:32:29.345Z,926.71
2017-05-22T03:32:49.354Z,926.71
2017-05-22T03:33:09.336Z,926.72
2017-05-22T03:33:29.289Z,926.72
2017-05-22T03:33:49.295Z,926.72
2017-05-22T03:34:08.689Z,926.71
2017-05-22T03:34:28.685Z,926.75
2017-05-22T03:34:48.121Z,926.71
2017-05-22T03:35:08.121Z,926.7
2017-05-22T03:35:28.099Z,926.71
2017-05-22T03:35:48.067Z,926.71
2017-05-22T03:36:08.066Z,926.67
2017-05-22T03:36:27.490Z,926.64
2017-05-22T03:36:47.430Z,926.65
2017-05-22T03:37:07.387Z,926.65
2017-05-22T03:37:27.358Z,926.58
2017-05-22T03:37:46.780Z,926.62
2017-05-22T03:38:06.773Z,926.58
2017-05-22T03:38:26.193Z,926.58
2017-05-22T03:38:46.135Z,926.59
2017-05-22T03:39:06.193Z,926.58
2017-05-22T03:39:26.180Z,926.58
2017-05-22T03:39:46.217Z,926.54
2017-05-22T03:40:06.359Z,926.52
2017-05-22T03:40:26.326Z,926.51
2017-05-22T03:40:46.334Z,926.52
2017-05-22T03:41:06.297Z,926.59
2017-05-22T03:41:25.687Z,926.59
2017-05-22T03:41:45.077Z,926.57
2017-05-22T03:42:05.052Z,926.58
2017-05-22T03:42:25.009Z,926.61
2017-05-22T03:42:44.424Z,926.58
2017-05-22T03:43:04.376Z,926.57
2017-05-22T03:43:23.797Z,926.6
2017-05-22T03:43:43.801Z,926.6
2017-05-22T03:44:03.792Z,926.62
2017-05-22T03:44:22.151Z,926.59
2017-05-22T03:44:42.193Z,926.61
2017-05-22T03:45:02.171Z,926.62
2017-05-22T03:45:22.141Z,926.57
2017-05-22T03:45:42.111Z,926.56
2017-05-22T03:46:01.522Z,926.56
2017-05-22T03:46:21.488Z,926.56
2017-05-22T03:46:41.475Z,926.58
2017-05-22T03:47:01.472Z,926.61
2017-05-22T03:47:21.475Z,926.56
2017-05-22T03:47:41.438Z,926.54
2017-05-22T03:48:01.423Z,926.56
2017-05-22T03:48:21.380Z,926.57
2017-05-22T03:48:41.373Z,926.55
2017-05-22T03:49:01.374Z,926.59
2017-05-22T03:49:21.382Z,926.55
2017-05-22T03:49:41.373Z,926.54
2017-05-22T03:50:01.358Z,926.54
2017-05-22T03:50:21.322Z,926.52
2017-05-22T03:50:41.313Z,926.51
2017-05-22T03:51:01.307Z,926.52
2017-05-22T03:51:21.287Z,926.5
2017-05-22T03:51:41.271Z,926.54
2017-05-22T03:52:01.253Z,926.5
2017-05-22T03:52:20.659Z,926.5
2017-05-22T03:52:38.945Z,926.51
2017-05-22T03:52:58.941Z,926.5
2017-05-22T03:53:18.920Z,926.53
2017-05-22T03:53:38.362Z,926.53
2017-05-22T03:53:58.351Z,926.51
2017-05-22T03:54:17.763Z,926.53
2017-05-22T03:54:37.733Z,926.51
2017-05-22T03:54:57.704Z,926.54
2017-05-22T03:55:17.664Z,926.57
2017-05-22T03:55:37.651Z,926.58
2017-05-22T03:55:57.633Z,926.59
2017-05-22T03:56:17.650Z,926.58
2017-05-22T03:56:37.065Z,926.6
2017-05-22T03:56:57.010Z,926.63
2017-05-22T03:57:16.992Z,926.62
2017-05-22T03:57:36.971Z,926.61
2017-05-22T03:57:56.424Z,926.65
2017-05-22T03:58:15.831Z,926.62
2017-05-22T03:58:35.822Z,926.6
2017-05-22T03:58:55.779Z,926.61
2017-05-22T03:59:15.753Z,926.61
2017-05-22T03:59:35.712Z,926.59
2017-05-22T03:59:55.170Z,926.62
2017-05-22T04:00:15.190Z,926.6
2017-05-22T04:00:34.599Z,926.59
2017-05-22T04:00:54.602Z,926.61
2017-05-22T04:01:14.571Z,926.57
2017-05-22T04:01:34.579Z,926.59
2017-05-22T04:01:54.567Z,926.61
2017-05-22T04:02:14.532Z,926.59
2017-05-22T04:02:34.538Z,926.6
2017-05-22T04:02:53.971Z,926.62
2017-05-22T04:03:13.933Z,926.63
2017-05-22T04:03:33.369Z,926.65
2017-05-22T04:03:53.466Z,926.61
2017-05-22T04:04:13.442Z,926.63
2017-05-22T04:04:33.436Z,926.65
2017-05-22T04:04:53.428Z,926.65
2017-05-22T04:05:13.452Z,926.66
2017-05-22T04:05:33.415Z,926.66
2017-05-22T04:05:53.415Z,926.66
2017-05-22T04:06:13.389Z,926.67
2017-05-22T04:06:33.423Z,926.65
2017-05-22T04:06:53.421Z,926.66
2017-05-22T04:07:13.437Z,926.63
2017-05-22T04:07:33.448Z,926.65
2017-05-22T04:07:53.481Z,926.68
2017-05-22T04:08:13.474Z,926.69
2017-05-22T04:08:33.469Z,926.67
2017-05-22T04:08:52.862Z,926.71
2017-05-22T04:09:12.840Z,926.69